Time,TemperatureF,DewpointF,PressureIn,WindDirection,WindDirectionDegrees,WindSpeedMPH,WindSpeedGustMPH,Humidity,HourlyPrecipIn,Conditions,Clouds,dailyrainin,SoftwareType,DateUTC
2013-05-12 00:09:00,61.5,44.2,30.14,NNW,339,0.0,0.0,53,0.00,,,-99.99,Weather View 32 v60,2013-05-12 07:09:00,
2013-05-12 00:19:00,61.2,43.9,30.14,North,351,0.0,0.0,53,0.00,,,-99.99,Weather View 32 v60,2013-05-12 07:19:00,
2013-05-12 00:29:00,60.8,43.5,30.14,NNW,346,0.0,0.0,53,0.00,,,-99.99,Weather View 32 v60,2013-05-12 07:29:00,
2013-05-12 00:39:00,60.6,44.3,30.14,NNE,12,0.0,0.0,55,0.00,,,-99.99,Weather View 32 v60,2013-05-12 07:39:00,
2013-05-12 00:49:00,60.1,44.3,30.14,North,351,0.0,0.0,56,0.00,,,-99.99,Weather View 32 v60,2013-05-12 07:49:00,
2013-05-12 00:59:00,59.9,44.6,30.14,North,351,0.0,0.0,57,0.00,,,-99.99,Weather View 32 v60,2013-05-12 07:59:00,
2013-05-12 01:09:00,59.4,44.5,30.14,North,351,0.0,0.0,58,0.00,,,-99.99,Weather View 32 v60,2013-05-12 08:09:00,
2013-05-12 01:19:00,59.0,44.7,30.14,North,351,0.0,0.0,59,0.00,,,-99.99,Weather View 32 v60,2013-05-12 08:19:00,
2013-05-12 01:29:00,58.8,44.9,30.14,North,351,0.0,0.0,60,0.00,,,-99.99,Weather View 32 v60,2013-05-12 08:29:00,
2013-05-12 01:39:00,58.5,45.5,30.14,North,351,0.0,0.0,62,0.00,,,-99.99,Weather View 32 v60,2013-05-12 08:39:00,
2013-05-12 01:49:00,58.1,46.4,30.14,NE,55,0.0,0.0,65,0.00,,,-99.99,Weather View 32 v60,2013-05-12 08:49:00,
2013-05-12 01:59:00,58.3,46.9,30.14,East,99,0.0,0.0,66,0.00,,,-99.99,Weather View 32 v60,2013-05-12 08:59:00,
2013-05-12 02:09:00,58.3,46.5,30.11,East,99,0.0,0.0,65,0.00,,,-99.99,Weather View 32 v60,2013-05-12 09:09:00,
2013-05-12 02:19:00,57.7,46.4,30.11,East,99,0.0,0.0,66,0.00,,,-99.99,Weather View 32 v60,2013-05-12 09:19:00,
2013-05-12 02:29:00,57.4,46.5,30.11,East,99,0.0,0.0,67,0.00,,,-99.99,Weather View 32 v60,2013-05-12 09:29:00,
2013-05-12 02:39:00,57.2,46.7,30.11,East,99,0.0,0.0,68,0.00,,,-99.99,Weather View 32 v60,2013-05-12 09:39:00,
2013-05-12 02:49:00,57.0,46.9,30.11,East,99,0.0,0.0,69,0.00,,,-99.99,Weather View 32 v60,2013-05-12 09:49:00,
2013-05-12 02:59:00,56.7,46.6,30.11,East,99,0.0,0.0,69,0.00,,,-99.99,Weather View 32 v60,2013-05-12 09:59:00,
2013-05-12 03:09:00,56.3,47.0,30.11,SW,214,0.0,0.0,71,0.00,,,-99.99,Weather View 32 v60,2013-05-12 10:09:00,
2013-05-12 03:19:00,56.1,47.2,30.11,SW,214,0.0,0.0,72,0.00,,,-99.99,Weather View 32 v60,2013-05-12 10:19:00,
2013-05-12 03:29:00,55.8,46.8,30.11,SW,214,0.0,0.0,72,0.00,,,-99.99,Weather View 32 v60,2013-05-12 10:29:00,
2013-05-12 03:39:00,55.9,47.4,30.11,SW,214,0.0,0.0,73,0.00,,,-99.99,Weather View 32 v60,2013-05-12 10:39:00,
2013-05-12 03:49:00,55.9,47.8,30.11,SSW,197,0.0,0.0,74,0.00,,,-99.99,Weather View 32 v60,2013-05-12 10:49:00,
2013-05-12 03:59:00,55.9,47.8,30.11,SSW,197,0.0,0.0,74,0.00,,,-99.99,Weather View 32 v60,2013-05-12 10:59:00,
2013-05-12 04:09:00,55.4,46.9,30.11,SSW,197,0.0,0.0,73,0.00,,,-99.99,Weather View 32 v60,2013-05-12 11:09:00,
2013-05-12 04:19:00,55.2,47.1,30.11,SSW,197,0.0,0.0,74,0.00,,,-99.99,Weather View 32 v60,2013-05-12 11:19:00,
2013-05-12 04:29:00,54.9,47.1,30.11,SSW,197,0.0,0.0,75,0.00,,,-99.99,Weather View 32 v60,2013-05-12 11:29:00,
2013-05-12 04:39:00,54.5,46.7,30.11,SSW,197,0.0,0.0,75,0.00,,,-99.99,Weather View 32 v60,2013-05-12 11:39:00,
2013-05-12 04:49:00,54.3,46.9,30.11,SSW,197,0.0,0.0,76,0.00,,,-99.99,Weather View 32 v60,2013-05-12 11:49:00,
2013-05-12 04:59:00,53.8,46.4,30.11,SSW,197,0.0,0.0,76,0.00,,,-99.99,Weather View 32 v60,2013-05-12 11:59:00,
2013-05-12 05:09:00,53.8,47.1,30.11,SSW,197,0.0,0.0,78,0.00,,,-99.99,Weather View 32 v60,2013-05-12 12:09:00,
2013-05-12 05:19:00,53.8,47.4,30.11,SSW,197,0.0,0.0,79,0.00,,,-99.99,Weather View 32 v60,2013-05-12 12:19:00,
2013-05-12 05:29:00,53.6,47.2,30.11,SSW,197,0.0,0.0,79,0.00,,,-99.99,Weather View 32 v60,2013-05-12 12:29:00,
2013-05-12 05:39:00,53.4,47.1,30.11,SSW,197,0.0,0.0,79,0.00,,,-99.99,Weather View 32 v60,2013-05-12 12:39:00,
2013-05-12 05:49:00,53.4,47.4,30.11,SSW,197,0.0,0.0,80,0.00,,,-99.99,Weather View 32 v60,2013-05-12 12:49:00,
2013-05-12 05:59:00,53.2,47.2,30.11,SSW,197,0.0,0.0,80,0.00,,,-99.99,Weather View 32 v60,2013-05-12 12:59:00,
2013-05-12 06:09:00,53.1,47.4,30.11,SSW,197,0.0,0.0,81,0.00,,,-99.99,Weather View 32 v60,2013-05-12 13:09:00,
2013-05-12 06:19:00,53.1,47.4,30.14,SSW,197,0.0,0.0,81,0.00,,,-99.99,Weather View 32 v60,2013-05-12 13:19:00,
2013-05-12 06:29:00,53.2,47.5,30.14,SSW,197,0.0,0.0,81,0.00,,,-99.99,Weather View 32 v60,2013-05-12 13:29:00,
2013-05-12 06:39:00,53.8,48.4,30.14,SSW,197,0.0,0.0,82,0.00,,,-99.99,Weather View 32 v60,2013-05-12 13:39:00,
2013-05-12 06:49:00,54.3,48.9,30.14,SSW,197,0.0,0.0,82,0.00,,,-99.99,Weather View 32 v60,2013-05-12 13:49:00,
2013-05-12 06:59:00,55.2,49.8,30.14,SSW,197,0.0,0.0,82,0.00,,,-99.99,Weather View 32 v60,2013-05-12 13:59:00,
2013-05-12 07:09:00,55.9,50.2,30.14,SSW,197,0.0,0.0,81,0.00,,,-99.99,Weather View 32 v60,2013-05-12 14:09:00,
2013-05-12 07:15:00,55.9,50.2,30.14,SSW,197,0.0,0.0,81,0.00,,,-99.99,Weather View 32 v60,2013-05-12 14:15:00,
2013-05-12 07:29:00,57.4,50.9,30.14,SSW,197,0.0,0.0,79,0.00,,,-99.99,Weather View 32 v60,2013-05-12 14:29:00,
2013-05-12 07:39:00,58.3,50.7,30.14,SSW,198,0.0,0.0,76,0.00,,,-99.99,Weather View 32 v60,2013-05-12 14:39:00,
2013-05-12 07:49:00,59.2,50.5,30.14,WSW,254,0.0,0.0,73,0.00,,,-99.99,Weather View 32 v60,2013-05-12 14:49:00,
2013-05-12 07:59:00,59.9,49.7,30.14,WSW,249,0.0,0.0,69,0.00,,,-99.99,Weather View 32 v60,2013-05-12 14:59:00,
2013-05-12 08:09:00,61.0,49.9,30.14,WSW,258,0.0,0.0,67,0.00,,,-99.99,Weather View 32 v60,2013-05-12 15:09:00,
2013-05-12 08:15:00,61.0,49.9,30.14,WSW,258,0.0,0.0,67,0.00,,,-99.99,Weather View 32 v60,2013-05-12 15:15:00,
2013-05-12 08:29:00,61.9,50.0,30.14,North,356,0.0,0.0,65,0.00,,,-99.99,Weather View 32 v60,2013-05-12 15:29:00,
2013-05-12 08:39:00,64.6,51.2,30.14,ESE,120,0.0,0.0,62,0.00,,,-99.99,Weather View 32 v60,2013-05-12 15:39:00,
2013-05-12 08:49:00,65.7,50.9,30.14,SSW,208,0.0,0.0,59,0.00,,,-99.99,Weather View 32 v60,2013-05-12 15:49:00,
2013-05-12 08:59:00,66.6,49.4,30.14,SSW,200,0.0,0.0,54,0.00,,,-99.99,Weather View 32 v60,2013-05-12 15:59:00,
2013-05-12 09:09:00,67.6,48.8,30.14,WSW,237,0.0,0.0,51,0.00,,,-99.99,Weather View 32 v60,2013-05-12 16:09:00,
2013-05-12 09:16:00,67.6,48.8,30.14,WSW,237,0.0,0.0,51,0.00,,,-99.99,Weather View 32 v60,2013-05-12 16:16:00,
2013-05-12 09:29:00,70.0,48.2,30.14,South,178,0.0,0.0,46,0.00,,,-99.99,Weather View 32 v60,2013-05-12 16:29:00,
2013-05-12 09:39:00,71.6,49.1,30.14,NW,320,0.0,0.0,45,0.00,,,-99.99,Weather View 32 v60,2013-05-12 16:39:00,
2013-05-12 09:49:00,72.9,48.4,30.14,North,8,0.0,0.0,42,0.00,,,-99.99,Weather View 32 v60,2013-05-12 16:49:00,
2013-05-12 09:59:00,73.9,48.7,30.14,South,174,0.0,0.0,41,0.00,,,-99.99,Weather View 32 v60,2013-05-12 16:59:00,
2013-05-12 10:09:00,75.4,47.9,30.14,SW,219,0.0,0.0,38,0.00,,,-99.99,Weather View 32 v60,2013-05-12 17:09:00,
2013-05-12 10:16:00,75.4,47.9,30.14,SW,219,0.0,0.0,38,0.00,,,-99.99,Weather View 32 v60,2013-05-12 17:16:00,
2013-05-12 10:29:00,78.6,47.8,30.14,NW,326,0.0,0.0,34,0.00,,,-99.99,Weather View 32 v60,2013-05-12 17:29:00,
2013-05-12 10:39:00,79.2,46.7,30.14,WNW,302,0.0,6.0,32,0.00,,,-99.99,Weather View 32 v60,2013-05-12 17:39:00,
2013-05-12 10:49:00,79.3,46.8,30.14,WNW,287,0.0,6.0,32,0.00,,,-99.99,Weather View 32 v60,2013-05-12 17:49:00,
2013-05-12 10:59:00,80.8,48.1,30.14,West,266,0.0,6.0,32,0.00,,,-99.99,Weather View 32 v60,2013-05-12 17:59:00,
2013-05-12 11:09:00,81.7,47.1,30.14,WNW,283,0.0,6.0,30,0.00,,,-99.99,Weather View 32 v60,2013-05-12 18:09:00,
2013-05-12 11:17:00,81.7,47.1,30.14,WNW,283,0.0,6.0,30,0.00,,,-99.99,Weather View 32 v60,2013-05-12 18:17:00,
2013-05-12 11:30:00,83.1,47.5,30.14,WNW,291,0.0,7.0,29,0.00,,,-99.99,Weather View 32 v60,2013-05-12 18:30:00,
2013-05-12 11:40:00,82.9,47.3,30.14,West,269,0.0,8.0,29,0.00,,,-99.99,Weather View 32 v60,2013-05-12 18:40:00,
2013-05-12 11:50:00,83.3,47.6,30.14,NNW,327,0.0,8.0,29,0.00,,,-99.99,Weather View 32 v60,2013-05-12 18:50:00,
2013-05-12 12:00:00,83.8,48.1,30.14,North,351,0.0,11.0,29,0.00,,,-99.99,Weather View 32 v60,2013-05-12 19:00:00,
2013-05-12 12:10:00,84.9,49.0,30.14,SSE,159,0.0,11.0,29,0.00,,,-99.99,Weather View 32 v60,2013-05-12 19:10:00,
2013-05-12 12:17:00,84.9,49.0,30.14,SSE,159,0.0,11.0,29,0.00,,,-99.99,Weather View 32 v60,2013-05-12 19:17:00,
2013-05-12 12:30:00,85.3,48.4,30.14,NW,319,0.0,11.0,28,0.00,,,-99.99,Weather View 32 v60,2013-05-12 19:30:00,
2013-05-12 12:40:00,85.8,48.8,30.11,West,265,6.0,11.0,28,0.00,,,-99.99,Weather View 32 v60,2013-05-12 19:40:00,
2013-05-12 12:50:00,86.2,49.1,30.11,West,262,0.0,11.0,28,0.00,,,-99.99,Weather View 32 v60,2013-05-12 19:50:00,
2013-05-12 13:00:00,85.8,48.8,30.11,NNE,30,0.0,9.0,28,0.00,,,-99.99,Weather View 32 v60,2013-05-12 20:00:00,
2013-05-12 13:10:00,85.8,48.8,30.11,WNW,287,0.0,9.0,28,0.00,,,-99.99,Weather View 32 v60,2013-05-12 20:10:00,
2013-05-12 13:18:00,85.8,48.8,30.11,WNW,287,0.0,9.0,28,0.00,,,-99.99,Weather View 32 v60,2013-05-12 20:18:00,
2013-05-12 13:30:00,86.5,49.5,30.11,NW,309,0.0,9.0,28,0.00,,,-99.99,Weather View 32 v60,2013-05-12 20:30:00,
2013-05-12 13:40:00,87.4,50.2,30.11,NW,305,4.0,9.0,28,0.00,,,-99.99,Weather View 32 v60,2013-05-12 20:40:00,
2013-05-12 13:50:00,87.8,49.5,30.11,West,280,0.0,8.0,27,0.00,,,-99.99,Weather View 32 v60,2013-05-12 20:50:00,
2013-05-12 14:00:00,87.8,50.5,30.11,North,9,0.0,8.0,28,0.00,,,-99.99,Weather View 32 v60,2013-05-12 21:00:00,
2013-05-12 14:10:00,87.1,48.9,30.11,WSW,242,0.0,8.0,27,0.00,,,-99.99,Weather View 32 v60,2013-05-12 21:10:00,
2013-05-12 14:19:00,87.1,48.9,30.11,WSW,242,0.0,8.0,27,0.00,,,-99.99,Weather View 32 v60,2013-05-12 21:19:00,
2013-05-12 14:30:00,87.8,50.5,30.11,NW,308,3.0,8.0,28,0.00,,,-99.99,Weather View 32 v60,2013-05-12 21:30:00,
2013-05-12 14:40:00,88.0,49.7,30.11,WSW,243,0.0,8.0,27,0.00,,,-99.99,Weather View 32 v60,2013-05-12 21:40:00,
2013-05-12 14:50:00,87.6,49.4,30.08,West,276,3.0,12.0,27,0.00,,,-99.99,Weather View 32 v60,2013-05-12 21:50:00,
2013-05-12 15:00:00,87.1,48.9,30.08,NNW,327,0.0,12.0,27,0.00,,,-99.99,Weather View 32 v60,2013-05-12 22:00:00,
2013-05-12 15:10:00,87.1,48.9,30.08,NNE,22,0.0,12.0,27,0.00,,,-99.99,Weather View 32 v60,2013-05-12 22:10:00,
2013-05-12 15:19:00,87.1,48.9,30.08,NNE,22,0.0,12.0,27,0.00,,,-99.99,Weather View 32 v60,2013-05-12 22:19:00,
2013-05-12 15:30:00,86.7,49.6,30.08,WNW,299,0.0,12.0,28,0.00,,,-99.99,Weather View 32 v60,2013-05-12 22:30:00,
2013-05-12 15:40:00,87.3,49.1,30.08,WSW,239,6.0,12.0,27,0.00,,,-99.99,Weather View 32 v60,2013-05-12 22:40:00,
2013-05-12 15:50:00,87.6,49.4,30.08,WNW,283,4.0,12.0,27,0.00,,,-99.99,Weather View 32 v60,2013-05-12 22:50:00,
2013-05-12 16:00:00,86.4,49.3,30.08,WSW,258,5.0,10.0,28,0.00,,,-99.99,Weather View 32 v60,2013-05-12 23:00:00,
2013-05-12 16:10:00,86.2,49.1,30.08,West,265,0.0,10.0,28,0.00,,,-99.99,Weather View 32 v60,2013-05-12 23:10:00,
2013-05-12 16:20:00,85.6,48.7,30.08,North,0,0.0,8.0,28,0.00,,,-99.99,Weather View 32 v60,2013-05-12 23:20:00,
2013-05-12 16:30:00,86.4,49.3,30.08,WNW,282,0.0,8.0,28,0.00,,,-99.99,Weather View 32 v60,2013-05-12 23:30:00,
2013-05-12 16:40:00,85.1,48.2,30.05,West,259,0.0,9.0,28,0.00,,,-99.99,Weather View 32 v60,2013-05-12 23:40:00,
2013-05-12 16:50:00,85.5,49.5,30.05,North,351,0.0,9.0,29,0.00,,,-99.99,Weather View 32 v60,2013-05-12 23:50:00,
2013-05-12 17:00:00,0.0,0.0,30.05,WSW,239,4.0,9.0,0,0.00,,,-99.99,Weather View 32 v60,2013-05-13 00:00:00,
2013-05-12 17:10:00,0.0,0.0,30.05,WNW,290,0.0,9.0,0,0.00,,,-99.99,Weather View 32 v60,2013-05-13 00:10:00,
2013-05-12 17:20:00,85.5,49.5,30.05,NW,305,0.0,9.0,29,0.00,,,-99.99,Weather View 32 v60,2013-05-13 00:20:00,
2013-05-12 17:30:00,84.4,48.5,30.05,WSW,255,0.0,9.0,29,0.00,,,-99.99,Weather View 32 v60,2013-05-13 00:30:00,
2013-05-12 17:40:00,84.2,49.3,30.05,West,263,0.0,8.0,30,0.00,,,-99.99,Weather View 32 v60,2013-05-13 00:40:00,
2013-05-12 17:50:00,83.3,49.4,30.05,NW,304,0.0,8.0,31,0.00,,,-99.99,Weather View 32 v60,2013-05-13 00:50:00,
2013-05-12 18:00:00,82.6,48.8,30.05,NNW,335,0.0,8.0,31,0.00,,,-99.99,Weather View 32 v60,2013-05-13 01:00:00,
2013-05-12 18:10:00,82.0,48.3,30.05,NW,317,4.0,8.0,31,0.00,,,-99.99,Weather View 32 v60,2013-05-13 01:10:00,
2013-05-12 18:20:00,81.1,47.5,30.05,NNW,345,0.0,7.0,31,0.00,,,-99.99,Weather View 32 v60,2013-05-13 01:20:00,
2013-05-12 18:30:00,81.3,47.7,30.05,NW,305,0.0,7.0,31,0.00,,,-99.99,Weather View 32 v60,2013-05-13 01:30:00,
2013-05-12 18:40:00,80.2,45.9,30.05,West,273,0.0,7.0,30,0.00,,,-99.99,Weather View 32 v60,2013-05-13 01:40:00,
2013-05-12 18:50:00,79.2,45.0,30.05,NNW,338,0.0,6.0,30,0.00,,,-99.99,Weather View 32 v60,2013-05-13 01:50:00,
2013-05-12 19:00:00,78.6,44.5,30.05,NW,315,0.0,6.0,30,0.00,,,-99.99,Weather View 32 v60,2013-05-13 02:00:00,
2013-05-12 19:10:00,77.7,44.6,30.05,NNW,347,0.0,6.0,31,0.00,,,-99.99,Weather View 32 v60,2013-05-13 02:10:00,
2013-05-12 19:20:00,76.6,43.7,30.05,NNE,29,0.0,4.0,31,0.00,,,-99.99,Weather View 32 v60,2013-05-13 02:20:00,
2013-05-12 19:30:00,75.6,43.5,30.05,NW,312,0.0,4.0,32,0.00,,,-99.99,Weather View 32 v60,2013-05-13 02:30:00,
2013-05-12 19:40:00,74.3,42.5,30.05,NNW,337,0.0,0.0,32,0.00,,,-99.99,Weather View 32 v60,2013-05-13 02:40:00,
2013-05-12 19:50:00,73.2,43.1,30.05,NNW,343,0.0,0.0,34,0.00,,,-99.99,Weather View 32 v60,2013-05-13 02:50:00,
2013-05-12 20:00:00,71.6,44.6,30.05,NW,319,0.0,0.0,38,0.00,,,-99.99,Weather View 32 v60,2013-05-13 03:00:00,
2013-05-12 20:10:00,70.5,46.3,30.05,West,263,0.0,0.0,42,0.00,,,-99.99,Weather View 32 v60,2013-05-13 03:10:00,
2013-05-12 20:20:00,69.6,45.4,30.05,WSW,246,0.0,0.0,42,0.00,,,-99.99,Weather View 32 v60,2013-05-13 03:20:00,
2013-05-12 20:30:00,68.7,45.9,30.05,West,267,0.0,0.0,44,0.00,,,-99.99,Weather View 32 v60,2013-05-13 03:30:00,
2013-05-12 20:40:00,68.0,45.8,30.05,South,176,0.0,0.0,45,0.00,,,-99.99,Weather View 32 v60,2013-05-13 03:40:00,
2013-05-12 20:50:00,67.5,45.9,30.05,SE,131,0.0,0.0,46,0.00,,,-99.99,Weather View 32 v60,2013-05-13 03:50:00,
2013-05-12 21:00:00,66.9,46.0,30.05,SE,127,0.0,0.0,47,0.00,,,-99.99,Weather View 32 v60,2013-05-13 04:00:00,
2013-05-12 21:10:00,66.2,45.9,30.05,SW,225,0.0,0.0,48,0.00,,,-99.99,Weather View 32 v60,2013-05-13 04:10:00,
2013-05-12 21:20:00,65.5,46.3,30.05,SE,133,0.0,0.0,50,0.00,,,-99.99,Weather View 32 v60,2013-05-13 04:20:00,
2013-05-12 21:22:00,65.5,46.3,30.05,SE,133,0.0,0.0,50,0.00,,,-99.99,Weather View 32 v60,2013-05-13 04:22:00,
2013-05-12 21:30:00,65.1,47.0,30.05,ENE,67,0.0,0.0,52,0.00,,,-99.99,Weather View 32 v60,2013-05-13 04:30:00,
2013-05-12 21:40:00,64.4,46.9,30.05,East,83,0.0,0.0,53,0.00,,,-99.99,Weather View 32 v60,2013-05-13 04:40:00,
2013-05-12 21:50:00,64.0,46.5,30.05,East,84,0.0,0.0,53,0.00,,,-99.99,Weather View 32 v60,2013-05-13 04:50:00,
2013-05-12 22:00:00,63.3,45.9,30.05,SE,124,0.0,0.0,53,0.00,,,-99.99,Weather View 32 v60,2013-05-13 05:00:00,
2013-05-12 22:10:00,62.8,46.3,30.05,SE,124,0.0,0.0,55,0.00,,,-99.99,Weather View 32 v60,2013-05-13 05:10:00,
2013-05-12 22:20:00,62.2,46.3,30.08,SE,124,0.0,0.0,56,0.00,,,-99.99,Weather View 32 v60,2013-05-13 05:20:00,
2013-05-12 22:30:00,61.9,46.9,30.08,SE,124,0.0,0.0,58,0.00,,,-99.99,Weather View 32 v60,2013-05-13 05:30:00,
2013-05-12 22:40:00,61.3,47.7,30.08,SE,124,0.0,0.0,61,0.00,,,-99.99,Weather View 32 v60,2013-05-13 05:40:00,
2013-05-12 22:50:00,60.8,48.1,30.08,NNW,347,0.0,0.0,63,0.00,,,-99.99,Weather View 32 v60,2013-05-13 05:50:00,
2013-05-12 23:00:00,60.4,48.2,30.08,North,351,0.0,0.0,64,0.00,,,-99.99,Weather View 32 v60,2013-05-13 06:00:00,
2013-05-12 23:10:00,60.1,47.8,30.08,North,356,0.0,0.0,64,0.00,,,-99.99,Weather View 32 v60,2013-05-13 06:10:00,
2013-05-12 23:20:00,59.7,48.3,30.05,WNW,301,0.0,0.0,66,0.00,,,-99.99,Weather View 32 v60,2013-05-13 06:20:00,
2013-05-12 23:30:00,59.4,48.4,30.05,WNW,302,0.0,0.0,67,0.00,,,-99.99,Weather View 32 v60,2013-05-13 06:30:00,
2013-05-12 23:39:00,59.0,48.0,30.05,NW,304,0.0,0.0,67,0.00,,,-99.99,Weather View 32 v60,2013-05-13 06:39:00,
2013-05-12 23:50:00,58.8,48.3,30.05,NW,307,0.0,0.0,68,0.00,,,-99.99,Weather View 32 v60,2013-05-13 06:50:00,